Autonomia — CUXX — position and weather

sailwx.info

Track history (hours):
 
Tides and Currents Weather Stations Pressure Air Temp Water Temp Dewpoint Dewpoint Depression Visibility Wind Speed Wind Dir Waves Ship Positions

Autonomia

Last reported at 2017-Apr-18 01:55 UTC. Time now 2017-Apr-30 03:28 UTC.
Position N 32°27' W 015°32'.
Warning: this ship's position is 12 days out of date.

Length 27 m; draft 19 m.

Type: Ship. MMSI: 255500118.

Date/timePositionNaut miles runAvg speedWind from/ knotsBaromVisibWave heightAir tempDewpointWater temp
2017-Apr-18 01:55N 32°27' W 015°32'8 0.4
2017-Apr-17 06:00N 32°20' W 015°36'2 0.4
2017-Apr-17 00:08N 32°21' W 015°33'1 0.6
2017-Apr-16 22:56N 32°20' W 015°33'0 0.5
2017-Apr-16 22:31N 32°20' W 015°32'0 0.5
2017-Apr-16 22:01N 32°20' W 015°32'0 0.5
2017-Apr-16 21:30N 32°20' W 015°32'0 0.4
2017-Apr-16 21:00N 32°20' W 015°32'0 0.1
2017-Apr-16 20:22N 32°20' W 015°31'0 0.7
2017-Apr-16 19:46N 32°20' W 015°32'1 0.4
2017-Apr-16 18:29N 32°20' W 015°32'0 0.7
2017-Apr-16 17:52N 32°19' W 015°32'1 1.9
2017-Apr-16 17:30N 32°19' W 015°33'2 1.0
2017-Apr-16 15:11N 32°18' W 015°35'0 1.1
2017-Apr-16 14:58N 32°18' W 015°35'1 0.9
2017-Apr-16 14:17N 32°18' W 015°36'2 0.6
2017-Apr-16 11:10N 32°18' W 015°38'0 1.5
2017-Apr-16 11:00N 32°18' W 015°38'2 1.2
2017-Apr-16 09:46N 32°17' W 015°39'1 1.9
2017-Apr-16 09:31N 32°16' W 015°39'0 0.6
2017-Apr-16 09:01N 32°16' W 015°40'2 1.4
2017-Apr-16 07:41N 32°14' W 015°40'2 6.7
2017-Apr-16 07:26N 32°13' W 015°40'6 3.7
2017-Apr-16 05:47N 32°16' W 015°47'0 0.4
2017-Apr-16 05:20N 32°16' W 015°47'2 0.3
2017-Apr-15 22:00N 32°16' W 015°44'  
2017-Apr-11 10:01N 32°23' W 017°07'0 1.4
2017-Apr-11 10:00N 32°23' W 017°07'1 1.4
2017-Apr-11 08:56N 32°23' W 017°05'2 0.1
2017-Apr-10 20:41N 32°22' W 017°07'0 1.5
2017-Apr-10 20:31N 32°22' W 017°07'1 1.2
2017-Apr-10 20:01N 32°23' W 017°07'0 0.4
2017-Apr-10 19:16N 32°23' W 017°07'1 0.7
2017-Apr-10 17:21N 32°22' W 017°09'0 0.7
2017-Apr-10 16:57N 32°23' W 017°09'0 0.7
2017-Apr-10 16:29N 32°23' W 017°09'0 0.7
2017-Apr-10 15:59N 32°23' W 017°09'  
Track history (hours):
 
Tides and Currents Weather Stations Pressure Air Temp Water Temp Dewpoint Dewpoint Depression Visibility Wind Speed Wind Dir Waves Ship Positions

Autonomia

Last reported at 2017-Apr-18 01:55 UTC. Time now 2017-Apr-30 03:28 UTC.
Position N 32°27' W 015°32'.
Warning: this ship's position is 12 days out of date.

Length 27 m; draft 19 m.

Type: Ship. MMSI: 255500118.

Date/timePositionNaut miles runAvg speedWind from/ knotsBaromVisibWave heightAir tempDewpointWater temp
2017-Apr-18 01:55N 32°27' W 015°32'8 0.4
2017-Apr-17 06:00N 32°20' W 015°36'2 0.4
2017-Apr-17 00:08N 32°21' W 015°33'1 0.6
2017-Apr-16 22:56N 32°20' W 015°33'0 0.5
2017-Apr-16 22:31N 32°20' W 015°32'0 0.5
2017-Apr-16 22:01N 32°20' W 015°32'0 0.5
2017-Apr-16 21:30N 32°20' W 015°32'0 0.4
2017-Apr-16 21:00N 32°20' W 015°32'0 0.1
2017-Apr-16 20:22N 32°20' W 015°31'0 0.7
2017-Apr-16 19:46N 32°20' W 015°32'1 0.4
2017-Apr-16 18:29N 32°20' W 015°32'0 0.7
2017-Apr-16 17:52N 32°19' W 015°32'1 1.9
2017-Apr-16 17:30N 32°19' W 015°33'2 1.0
2017-Apr-16 15:11N 32°18' W 015°35'0 1.1
2017-Apr-16 14:58N 32°18' W 015°35'1 0.9
2017-Apr-16 14:17N 32°18' W 015°36'2 0.6
2017-Apr-16 11:10N 32°18' W 015°38'0 1.5
2017-Apr-16 11:00N 32°18' W 015°38'2 1.2
2017-Apr-16 09:46N 32°17' W 015°39'1 1.9
2017-Apr-16 09:31N 32°16' W 015°39'0 0.6
2017-Apr-16 09:01N 32°16' W 015°40'2 1.4
2017-Apr-16 07:41N 32°14' W 015°40'2 6.7
2017-Apr-16 07:26N 32°13' W 015°40'6 3.7
2017-Apr-16 05:47N 32°16' W 015°47'0 0.4
2017-Apr-16 05:20N 32°16' W 015°47'2 0.3
2017-Apr-15 22:00N 32°16' W 015°44'  
2017-Apr-11 10:01N 32°23' W 017°07'0 1.4
2017-Apr-11 10:00N 32°23' W 017°07'1 1.4
2017-Apr-11 08:56N 32°23' W 017°05'2 0.1
2017-Apr-10 20:41N 32°22' W 017°07'0 1.5
2017-Apr-10 20:31N 32°22' W 017°07'1 1.2
2017-Apr-10 20:01N 32°23' W 017°07'0 0.4
2017-Apr-10 19:16N 32°23' W 017°07'1 0.7
2017-Apr-10 17:21N 32°22' W 017°09'0 0.7
2017-Apr-10 16:57N 32°23' W 017°09'0 0.7
2017-Apr-10 16:29N 32°23' W 017°09'0 0.7
2017-Apr-10 15:59N 32°23' W 017°09'  

Dump ship's entire track history